createdAt,value
2022-07-25T00:00:10.952Z,5.60
2022-07-25T00:02:37.484Z,7.00
2022-07-25T00:05:04.708Z,7.03
2022-07-25T00:07:31.190Z,6.77
2022-07-25T00:09:57.766Z,6.53
2022-07-25T00:12:24.622Z,8.73
2022-07-25T00:14:51.125Z,7.23
2022-07-25T00:17:17.605Z,7.70
2022-07-25T00:19:44.236Z,6.83
2022-07-25T00:22:10.843Z,6.37
2022-07-25T00:24:37.330Z,7.20
2022-07-25T00:27:04.089Z,7.00
2022-07-25T00:29:30.763Z,7.70
2022-07-25T00:31:57.409Z,6.10
2022-07-25T00:34:23.937Z,16.83
2022-07-25T00:36:50.506Z,5.77
2022-07-25T00:39:16.962Z,8.40
2022-07-25T00:41:44.429Z,7.40
2022-07-25T00:44:27.922Z,9.13
2022-07-25T00:46:55.289Z,13.67
2022-07-25T00:49:22.188Z,11.33
2022-07-25T00:51:50.245Z,7.40
2022-07-25T00:54:16.937Z,8.00
2022-07-25T00:56:43.533Z,6.87
2022-07-25T00:59:10.321Z,6.00
2022-07-25T01:01:38.236Z,7.80
2022-07-25T01:04:07.121Z,9.43
2022-07-25T01:06:34.436Z,10.10
2022-07-25T01:09:01.809Z,7.70
2022-07-25T01:11:28.356Z,8.10
2022-07-25T01:13:54.836Z,9.40
2022-07-25T01:16:21.447Z,10.43
2022-07-25T01:18:47.979Z,6.53
2022-07-25T01:21:14.678Z,9.17
2022-07-25T01:23:41.677Z,7.63
2022-07-25T01:26:08.185Z,9.50
2022-07-25T01:28:34.740Z,11.30
2022-07-25T01:31:01.304Z,9.50
2022-07-25T01:33:27.809Z,9.50
2022-07-25T01:35:54.363Z,7.73
2022-07-25T01:38:20.928Z,11.47
2022-07-25T01:40:47.550Z,9.90
2022-07-25T01:43:14.221Z,8.87
2022-07-25T01:45:40.786Z,10.07
2022-07-25T01:48:07.306Z,9.30
2022-07-25T01:50:33.810Z,12.73
2022-07-25T01:53:00.416Z,9.73
2022-07-25T01:55:26.903Z,15.53
2022-07-25T01:57:55.873Z,9.17
2022-07-25T02:00:23.123Z,10.33
2022-07-25T02:03:09.783Z,8.67
2022-07-25T02:05:36.411Z,14.47
2022-07-25T02:08:03.918Z,11.67
2022-07-25T02:10:30.703Z,11.40
2022-07-25T02:12:57.237Z,10.13
2022-07-25T02:15:23.789Z,10.73
2022-07-25T02:17:50.273Z,12.23
2022-07-25T02:20:16.718Z,9.30
2022-07-25T02:22:43.184Z,11.93
2022-07-25T02:25:09.900Z,12.73
2022-07-25T02:27:36.369Z,13.47
2022-07-25T02:30:02.948Z,13.00
2022-07-25T02:32:29.535Z,13.80
2022-07-25T02:34:56.068Z,12.53
2022-07-25T02:37:22.569Z,13.50
2022-07-25T02:39:49.035Z,13.23
2022-07-25T02:42:15.555Z,12.07
2022-07-25T02:44:42.031Z,15.50
2022-07-25T02:47:08.500Z,12.43
2022-07-25T02:49:34.948Z,13.57
2022-07-25T02:52:01.397Z,13.40
2022-07-25T02:54:27.878Z,16.50
2022-07-25T02:56:54.358Z,14.53
2022-07-25T02:59:20.872Z,14.07
2022-07-25T03:01:47.502Z,15.73
2022-07-25T03:04:14.070Z,11.57
2022-07-25T03:06:42.850Z,15.23
2022-07-25T03:09:09.408Z,12.07
2022-07-25T03:11:35.972Z,12.80
2022-07-25T03:14:04.666Z,17.10
2022-07-25T03:16:31.529Z,11.17
2022-07-25T03:18:58.063Z,10.77
2022-07-25T03:21:24.640Z,11.63
2022-07-25T03:23:52.835Z,10.43
2022-07-25T03:26:19.828Z,13.10
2022-07-25T03:28:46.412Z,13.47
2022-07-25T03:31:13.114Z,13.77
2022-07-25T03:33:39.752Z,13.83
2022-07-25T03:36:06.569Z,12.87
2022-07-25T03:38:33.147Z,12.90
2022-07-25T03:40:59.669Z,11.73
2022-07-25T03:43:26.212Z,13.60
2022-07-25T03:45:52.787Z,16.67
2022-07-25T03:48:19.444Z,13.87
2022-07-25T03:50:46.030Z,13.23
2022-07-25T03:53:13.685Z,11.63
2022-07-25T03:55:40.219Z,14.77
2022-07-25T03:58:07.162Z,15.03
2022-07-25T04:00:33.767Z,11.67
2022-07-25T04:03:00.664Z,16.30
2022-07-25T04:05:27.308Z,13.17
2022-07-25T04:07:53.854Z,16.30
2022-07-25T04:10:20.459Z,20.97
2022-07-25T04:12:46.968Z,12.10
2022-07-25T04:15:13.693Z,15.33
2022-07-25T04:17:40.192Z,24.30
2022-07-25T04:20:07.545Z,14.40
2022-07-25T04:22:34.226Z,15.07
2022-07-25T04:25:00.822Z,18.57
2022-07-25T04:27:27.319Z,15.97
2022-07-25T04:29:53.807Z,13.20
2022-07-25T04:32:23.339Z,12.30
2022-07-25T04:34:51.463Z,13.57
2022-07-25T04:37:18.125Z,9.47
2022-07-25T04:39:44.732Z,12.30
2022-07-25T04:42:11.240Z,15.63
2022-07-25T04:44:37.786Z,13.93
2022-07-25T04:47:04.975Z,14.10
2022-07-25T04:49:31.422Z,12.47
2022-07-25T04:51:57.911Z,14.90
2022-07-25T04:54:24.517Z,13.23
2022-07-25T04:56:51.023Z,10.70
2022-07-25T04:59:17.512Z,13.13
2022-07-25T05:01:44.019Z,11.03
2022-07-25T05:04:10.662Z,12.40
2022-07-25T05:06:37.189Z,9.40
2022-07-25T05:09:04.243Z,11.70
2022-07-25T05:11:30.807Z,14.90
2022-07-25T05:13:57.387Z,15.07
2022-07-25T05:16:24.201Z,16.33
2022-07-25T05:18:50.865Z,11.73
2022-07-25T05:21:17.419Z,8.47
2022-07-25T05:23:44.159Z,11.83
2022-07-25T05:26:10.747Z,5.20
2022-07-25T05:28:37.248Z,8.47
2022-07-25T05:31:04.252Z,4.47
2022-07-25T05:33:30.810Z,5.87
2022-07-25T05:35:57.393Z,7.80
2022-07-25T05:38:23.848Z,5.13
2022-07-25T05:40:52.189Z,7.03
2022-07-25T05:43:19.246Z,6.17
2022-07-25T05:45:47.509Z,7.17
2022-07-25T05:48:15.360Z,9.57
2022-07-25T05:50:41.900Z,5.27
2022-07-25T05:53:08.530Z,8.50
2022-07-25T05:55:35.089Z,6.53
2022-07-25T05:58:06.711Z,5.33
2022-07-25T06:00:33.189Z,6.13
2022-07-25T06:03:00.633Z,5.17
2022-07-25T06:05:27.803Z,8.97
2022-07-25T06:07:54.474Z,9.13
2022-07-25T06:10:21.348Z,7.93
2022-07-25T06:12:47.858Z,8.37
2022-07-25T06:15:22.347Z,6.10
2022-07-25T06:17:49.640Z,6.57
2022-07-25T06:20:16.255Z,8.50
2022-07-25T06:22:42.811Z,6.47
2022-07-25T06:25:09.715Z,12.00
2022-07-25T06:27:38.145Z,11.47
2022-07-25T06:30:06.651Z,6.28
2022-07-25T06:32:37.835Z,6.88
2022-07-25T06:35:04.610Z,8.90
2022-07-25T06:37:31.225Z,7.07
2022-07-25T06:39:57.716Z,7.75
2022-07-25T06:42:25.314Z,6.30
2022-07-25T06:44:51.803Z,6.53
2022-07-25T06:47:18.371Z,4.78
2022-07-25T06:49:44.874Z,11.10
2022-07-25T06:52:11.471Z,5.75
2022-07-25T06:54:38.147Z,5.88
2022-07-25T06:57:04.979Z,5.65
2022-07-25T06:59:31.765Z,4.43
2022-07-25T07:01:58.318Z,6.85
2022-07-25T07:04:24.949Z,4.55
2022-07-25T07:06:51.552Z,3.88
2022-07-25T07:09:18.129Z,4.38
2022-07-25T07:11:44.640Z,6.43
2022-07-25T07:14:11.205Z,3.53
2022-07-25T07:16:38.030Z,5.07
2022-07-25T07:19:04.999Z,3.22
2022-07-25T07:21:31.966Z,3.78
2022-07-25T07:23:58.616Z,4.82
2022-07-25T07:26:25.111Z,3.13
2022-07-25T07:28:54.467Z,5.50
2022-07-25T07:31:21.327Z,5.18
2022-07-25T07:33:48.038Z,3.13
2022-07-25T07:36:14.581Z,2.97
2022-07-25T07:38:41.632Z,4.65
2022-07-25T07:41:08.318Z,2.88
2022-07-25T07:43:35.836Z,8.27
2022-07-25T07:46:02.896Z,4.53
2022-07-25T07:48:30.961Z,2.30
2022-07-25T07:50:58.254Z,2.87
2022-07-25T07:53:44.766Z,3.67
2022-07-25T07:56:12.219Z,3.28
2022-07-25T07:58:38.787Z,6.47
2022-07-25T08:01:06.054Z,5.78
2022-07-25T08:03:32.769Z,2.40
2022-07-25T08:05:59.359Z,4.37
2022-07-25T08:08:30.875Z,8.55
2022-07-25T08:10:59.068Z,3.85
2022-07-25T08:13:30.563Z,3.15
2022-07-25T08:15:59.166Z,3.53
2022-07-25T08:18:27.216Z,4.90
2022-07-25T08:20:53.798Z,4.23
2022-07-25T08:23:20.350Z,6.18
2022-07-25T08:25:47.642Z,3.70
2022-07-25T08:28:15.021Z,5.10
2022-07-25T08:30:43.532Z,5.90
2022-07-25T08:33:13.553Z,4.80
2022-07-25T08:35:41.830Z,3.22
2022-07-25T08:38:11.580Z,7.10
2022-07-25T08:40:38.322Z,7.07
2022-07-25T08:43:05.179Z,8.23
2022-07-25T08:45:33.327Z,3.15
2022-07-25T08:47:59.810Z,3.67
2022-07-25T08:50:28.696Z,3.70
2022-07-25T08:53:10.394Z,4.93
2022-07-25T08:55:45.263Z,4.30
2022-07-25T08:58:16.231Z,7.33
2022-07-25T09:00:43.649Z,6.33
2022-07-25T09:03:11.042Z,6.25
2022-07-25T09:05:37.946Z,3.57
2022-07-25T09:08:12.294Z,4.07
2022-07-25T09:10:39.739Z,5.97
2022-07-25T09:13:10.490Z,4.10
2022-07-25T09:15:39.242Z,2.87
2022-07-25T09:18:09.981Z,5.10
2022-07-25T09:20:43.700Z,5.63
2022-07-25T09:23:12.892Z,7.43
2022-07-25T09:25:39.442Z,3.43
2022-07-25T09:28:13.414Z,5.73
2022-07-25T09:30:41.607Z,4.07
2022-07-25T09:33:08.179Z,4.10
2022-07-25T09:35:38.923Z,4.87
2022-07-25T09:38:14.075Z,8.03
2022-07-25T09:40:41.283Z,6.67
2022-07-25T09:43:08.338Z,3.53
2022-07-25T09:45:35.001Z,3.67
2022-07-25T09:48:04.031Z,4.83
2022-07-25T09:50:32.792Z,5.73
2022-07-25T09:53:02.806Z,3.27
2022-07-25T09:55:30.372Z,4.90
2022-07-25T09:57:56.915Z,7.07
2022-07-25T10:00:26.618Z,6.97
2022-07-25T10:02:56.045Z,6.07
2022-07-25T10:05:36.952Z,4.17
2022-07-25T10:08:07.473Z,3.13
2022-07-25T10:10:38.897Z,4.13
2022-07-25T10:13:29.624Z,5.67
2022-07-25T10:15:56.124Z,5.33
2022-07-25T10:18:26.237Z,8.77
2022-07-25T10:21:24.572Z,3.78
2022-07-25T10:24:00.046Z,6.13
2022-07-25T10:26:26.923Z,5.03
2022-07-25T10:28:54.122Z,12.57
2022-07-25T10:31:24.360Z,4.40
2022-07-25T10:33:56.708Z,2.83
2022-07-25T10:36:23.881Z,3.90
2022-07-25T10:38:57.790Z,6.63
2022-07-25T10:41:26.363Z,2.97
2022-07-25T10:43:57.810Z,5.83
2022-07-25T10:46:27.324Z,3.87
2022-07-25T10:49:01.109Z,4.57
2022-07-25T10:51:29.613Z,3.72
2022-07-25T10:53:56.705Z,5.15
2022-07-25T10:56:26.518Z,3.70
2022-07-25T10:58:55.267Z,6.30
2022-07-25T11:01:27.440Z,7.82
2022-07-25T11:03:55.975Z,5.90
2022-07-25T11:06:40.081Z,3.27
2022-07-25T11:09:27.208Z,10.90
2022-07-25T11:11:57.333Z,3.43
2022-07-25T11:14:28.798Z,9.37
2022-07-25T11:16:56.179Z,7.50
2022-07-25T11:19:27.914Z,4.47
2022-07-25T11:21:56.747Z,3.83
2022-07-25T11:24:37.893Z,6.40
2022-07-25T11:27:12.559Z,6.40
2022-07-25T11:29:39.870Z,5.33
2022-07-25T11:32:10.724Z,4.70
2022-07-25T11:34:48.352Z,7.00
2022-07-25T11:37:15.434Z,5.40
2022-07-25T11:39:44.000Z,5.27
2022-07-25T11:42:18.480Z,3.90
2022-07-25T11:44:48.506Z,5.10
2022-07-25T11:47:32.276Z,8.50
2022-07-25T11:50:00.961Z,4.57
2022-07-25T11:52:36.617Z,5.20
2022-07-25T11:55:11.733Z,4.75
2022-07-25T11:57:40.813Z,5.60
2022-07-25T12:00:19.513Z,5.47
2022-07-25T12:02:47.561Z,2.40
2022-07-25T12:05:16.065Z,3.33
2022-07-25T12:07:44.819Z,4.90
2022-07-25T12:10:22.113Z,4.63
2022-07-25T12:12:51.634Z,3.10
2022-07-25T12:15:20.729Z,5.40
2022-07-25T12:17:47.670Z,4.03
2022-07-25T12:20:28.554Z,3.20
2022-07-25T12:23:03.624Z,3.67
2022-07-25T12:25:31.345Z,3.43
2022-07-25T12:27:58.925Z,5.53
2022-07-25T12:30:29.014Z,6.53
2022-07-25T12:32:56.563Z,3.53
2022-07-25T12:35:23.618Z,6.90
2022-07-25T12:37:51.425Z,6.30
2022-07-25T12:40:18.371Z,4.53
2022-07-25T12:42:45.669Z,4.97
2022-07-25T12:45:12.911Z,4.70
2022-07-25T12:47:39.628Z,2.60
2022-07-25T12:50:06.912Z,7.77
2022-07-25T12:52:33.695Z,3.20
2022-07-25T12:55:00.336Z,2.87
2022-07-25T12:57:27.029Z,11.43
2022-07-25T12:59:53.631Z,5.00
2022-07-25T13:02:20.206Z,3.90
2022-07-25T13:04:46.960Z,3.38
2022-07-25T13:07:13.696Z,5.13
2022-07-25T13:09:40.380Z,6.78
2022-07-25T13:12:07.212Z,5.40
2022-07-25T13:14:33.751Z,4.00
2022-07-25T13:17:00.497Z,5.37
2022-07-25T13:19:27.413Z,2.38
2022-07-25T13:21:53.963Z,2.95
2022-07-25T13:24:20.507Z,3.03
2022-07-25T13:26:47.140Z,8.07
2022-07-25T13:29:13.964Z,4.43
2022-07-25T13:31:41.791Z,4.00
2022-07-25T13:34:09.171Z,3.97
2022-07-25T13:36:37.186Z,9.13
2022-07-25T13:39:05.558Z,6.57
2022-07-25T13:41:33.123Z,3.60
2022-07-25T13:44:00.458Z,5.38
2022-07-25T13:46:27.067Z,6.40
2022-07-25T13:48:55.258Z,3.92
2022-07-25T13:51:21.917Z,3.85
2022-07-25T13:53:48.509Z,5.13
2022-07-25T13:56:15.128Z,3.70
2022-07-25T13:58:41.866Z,5.47
2022-07-25T14:01:09.761Z,6.88
2022-07-25T14:03:36.914Z,3.72
2022-07-25T14:06:04.873Z,4.88
2022-07-25T14:08:32.012Z,2.65
2022-07-25T14:10:58.523Z,4.03
2022-07-25T14:13:24.998Z,5.73
2022-07-25T14:15:51.647Z,2.15
2022-07-25T14:18:18.433Z,3.50
2022-07-25T14:20:44.931Z,4.80
2022-07-25T14:23:11.585Z,14.90
2022-07-25T14:25:38.149Z,7.47
2022-07-25T14:28:04.979Z,5.32
2022-07-25T14:30:31.933Z,24.13
2022-07-25T14:32:58.659Z,14.87
2022-07-25T14:35:31.860Z,2.13
2022-07-25T14:37:59.114Z,2.60
2022-07-25T14:40:25.623Z,5.17
2022-07-25T14:42:52.121Z,5.60
2022-07-25T14:45:18.998Z,3.03
2022-07-25T14:47:45.473Z,3.55
2022-07-25T14:50:11.967Z,9.77
2022-07-25T14:52:38.538Z,3.23
2022-07-25T14:55:05.941Z,5.43
2022-07-25T14:57:32.536Z,3.47
2022-07-25T15:00:01.854Z,4.50
2022-07-25T15:02:28.590Z,5.20
2022-07-25T15:04:55.427Z,5.28
2022-07-25T15:07:22.069Z,5.18
2022-07-25T15:09:48.674Z,4.40
2022-07-25T15:12:17.173Z,4.20
2022-07-25T15:14:44.012Z,3.75
2022-07-25T15:17:10.682Z,7.05
2022-07-25T15:19:37.301Z,3.57
2022-07-25T15:22:04.457Z,3.03
2022-07-25T15:24:44.331Z,5.18
2022-07-25T15:27:17.942Z,2.50
2022-07-25T15:29:46.205Z,6.07
2022-07-25T15:32:12.879Z,3.75
2022-07-25T15:34:39.563Z,6.30
2022-07-25T15:37:06.188Z,8.13
2022-07-25T15:39:35.677Z,11.13
2022-07-25T15:42:03.152Z,4.57
2022-07-25T15:44:32.985Z,4.05
2022-07-25T15:46:59.777Z,4.35
2022-07-25T15:49:26.545Z,4.90
2022-07-25T15:51:53.105Z,7.90
2022-07-25T15:54:19.700Z,5.15
2022-07-25T15:56:46.445Z,5.80
2022-07-25T15:59:13.247Z,4.78
2022-07-25T16:01:40.010Z,3.47
2022-07-25T16:04:06.770Z,6.03
2022-07-25T16:06:33.464Z,4.35
2022-07-25T16:08:59.992Z,4.03
2022-07-25T16:11:26.761Z,5.90
2022-07-25T16:13:53.765Z,5.03
2022-07-25T16:16:23.332Z,3.28
2022-07-25T16:18:50.178Z,4.17
2022-07-25T16:21:17.128Z,6.27
2022-07-25T16:23:45.464Z,5.17
2022-07-25T16:26:12.522Z,3.90
2022-07-25T16:28:40.255Z,4.33
2022-07-25T16:31:07.071Z,3.95
2022-07-25T16:33:33.980Z,3.37
2022-07-25T16:36:00.606Z,3.07
2022-07-25T16:38:28.808Z,3.40
2022-07-25T16:40:55.494Z,5.07
2022-07-25T16:43:22.549Z,2.13
2022-07-25T16:45:49.055Z,3.42
2022-07-25T16:48:15.877Z,3.25
2022-07-25T16:50:42.583Z,5.97
2022-07-25T16:53:09.140Z,6.10
2022-07-25T16:55:35.763Z,3.83
2022-07-25T16:58:02.902Z,6.90
2022-07-25T17:00:29.531Z,5.00
2022-07-25T17:02:56.099Z,4.63
2022-07-25T17:05:22.699Z,2.80
2022-07-25T17:07:57.006Z,4.33
2022-07-25T17:10:27.752Z,2.17
2022-07-25T17:12:54.621Z,8.18
2022-07-25T17:15:21.209Z,3.58
2022-07-25T17:17:47.773Z,3.35
2022-07-25T17:20:14.783Z,3.55
2022-07-25T17:22:41.289Z,2.57
2022-07-25T17:25:08.229Z,5.33
2022-07-25T17:27:35.170Z,5.60
2022-07-25T17:30:01.945Z,1.90
2022-07-25T17:32:30.199Z,5.47
2022-07-25T17:34:57.671Z,4.60
2022-07-25T17:37:24.457Z,3.37
2022-07-25T17:39:51.038Z,3.87
2022-07-25T17:42:22.262Z,2.17
2022-07-25T17:44:50.095Z,2.73
2022-07-25T17:47:16.892Z,4.20
2022-07-25T17:49:43.405Z,3.73
2022-07-25T17:52:13.304Z,6.13
2022-07-25T17:54:40.067Z,6.93
2022-07-25T17:57:06.729Z,4.27
2022-07-25T17:59:34.285Z,6.83
2022-07-25T18:02:02.867Z,8.67
2022-07-25T18:04:29.413Z,3.70
2022-07-25T18:06:56.188Z,4.57
2022-07-25T18:09:24.098Z,6.17
2022-07-25T18:11:50.919Z,5.50
2022-07-25T18:14:17.542Z,3.83
2022-07-25T18:16:45.513Z,6.13
2022-07-25T18:19:12.229Z,7.33
2022-07-25T18:21:38.941Z,5.63
2022-07-25T18:24:05.986Z,5.17
2022-07-25T18:26:33.952Z,4.97
2022-07-25T18:29:01.014Z,7.97
2022-07-25T18:31:27.703Z,4.57
2022-07-25T18:33:54.344Z,3.33
2022-07-25T18:36:20.944Z,4.53
2022-07-25T18:38:48.632Z,9.67
2022-07-25T18:41:30.978Z,8.20
2022-07-25T18:43:57.774Z,5.73
2022-07-25T18:46:24.878Z,4.57
2022-07-25T18:48:52.093Z,4.67
2022-07-25T18:51:20.336Z,7.33
2022-07-25T18:53:48.567Z,3.57
2022-07-25T18:56:16.111Z,5.57
2022-07-25T18:58:42.762Z,7.90
2022-07-25T19:01:09.455Z,5.87
2022-07-25T19:03:37.612Z,3.53
2022-07-25T19:06:04.863Z,6.97
2022-07-25T19:08:32.409Z,4.87
2022-07-25T19:10:59.086Z,4.57
2022-07-25T19:13:47.861Z,4.07
2022-07-25T19:16:12.331Z,8.03
2022-07-25T19:18:39.849Z,6.50
2022-07-25T19:21:06.970Z,5.27
2022-07-25T19:23:33.609Z,10.20
2022-07-25T19:26:01.466Z,5.47
2022-07-25T19:28:29.028Z,6.33
2022-07-25T19:30:56.480Z,9.20
2022-07-25T19:33:23.333Z,4.83
2022-07-25T19:35:50.086Z,7.53
2022-07-25T19:38:16.582Z,5.00
2022-07-25T19:40:43.666Z,7.37
2022-07-25T19:43:10.140Z,4.93
2022-07-25T19:45:38.815Z,6.50
2022-07-25T19:48:07.116Z,5.00
2022-07-25T19:50:33.742Z,7.97
2022-07-25T19:53:00.952Z,5.13
2022-07-25T19:55:28.230Z,4.53
2022-07-25T19:57:55.140Z,10.30
2022-07-25T20:00:21.928Z,6.70
2022-07-25T20:02:48.940Z,5.00
2022-07-25T20:05:17.250Z,4.53
2022-07-25T20:07:43.755Z,8.70
2022-07-25T20:10:10.766Z,4.77
2022-07-25T20:12:38.165Z,4.23
2022-07-25T20:15:05.335Z,8.33
2022-07-25T20:17:31.948Z,6.60
2022-07-25T20:19:58.703Z,3.50
2022-07-25T20:22:25.893Z,4.70
2022-07-25T20:24:52.475Z,9.27
2022-07-25T20:27:19.144Z,6.30
2022-07-25T20:29:45.673Z,6.07
2022-07-25T20:32:12.273Z,5.27
2022-07-25T20:34:38.904Z,4.03
2022-07-25T20:37:05.460Z,5.53
2022-07-25T20:39:32.062Z,7.10
2022-07-25T20:41:58.730Z,7.23
2022-07-25T20:44:25.353Z,7.83
2022-07-25T20:46:51.919Z,6.50
2022-07-25T20:49:18.541Z,3.80
2022-07-25T20:51:45.192Z,6.90
2022-07-25T20:54:12.691Z,4.97
2022-07-25T20:56:39.243Z,4.23
2022-07-25T20:59:06.961Z,7.07
2022-07-25T21:01:33.993Z,5.03
2022-07-25T21:04:04.279Z,7.20
2022-07-25T21:06:33.662Z,7.60
2022-07-25T21:09:00.661Z,6.57
2022-07-25T21:11:27.230Z,7.27
2022-07-25T21:13:53.714Z,8.57
2022-07-25T21:16:20.398Z,10.37
2022-07-25T21:18:46.918Z,6.07
2022-07-25T21:21:13.599Z,4.97
2022-07-25T21:23:40.820Z,9.47
2022-07-25T21:26:07.437Z,6.67
2022-07-25T21:28:33.922Z,8.90
2022-07-25T21:31:00.819Z,7.67
2022-07-25T21:33:27.326Z,13.87
2022-07-25T21:35:53.983Z,8.73
2022-07-25T21:38:26.513Z,4.93
2022-07-25T21:40:54.584Z,6.40
2022-07-25T21:43:21.093Z,9.53
2022-07-25T21:45:47.717Z,5.63
2022-07-25T21:48:14.266Z,6.23
2022-07-25T21:50:43.956Z,6.03
2022-07-25T21:53:13.452Z,6.57
2022-07-25T21:55:44.792Z,4.57
2022-07-25T21:58:11.379Z,5.97
2022-07-25T22:00:44.617Z,11.13
2022-07-25T22:03:12.411Z,3.33
2022-07-25T22:05:39.380Z,7.53
2022-07-25T22:08:06.135Z,4.83
2022-07-25T22:10:33.623Z,4.53
2022-07-25T22:13:00.432Z,6.53
2022-07-25T22:15:27.162Z,7.17
2022-07-25T22:17:54.092Z,7.00
2022-07-25T22:20:20.946Z,7.60
2022-07-25T22:22:48.422Z,8.37
2022-07-25T22:25:15.884Z,6.13
2022-07-25T22:27:42.511Z,4.50
2022-07-25T22:30:13.447Z,4.93
2022-07-25T22:32:42.947Z,5.13
2022-07-25T22:35:09.721Z,7.20
2022-07-25T22:37:36.330Z,11.27
2022-07-25T22:40:04.291Z,6.50
2022-07-25T22:42:30.822Z,5.83
2022-07-25T22:44:57.419Z,6.43
2022-07-25T22:47:23.987Z,8.43
2022-07-25T22:49:50.546Z,8.93
2022-07-25T22:52:17.093Z,6.40
2022-07-25T22:54:43.828Z,10.77
2022-07-25T22:57:10.416Z,8.57
2022-07-25T22:59:37.000Z,12.17
2022-07-25T23:02:04.646Z,5.30
2022-07-25T23:04:31.286Z,6.27
2022-07-25T23:06:57.897Z,7.60
2022-07-25T23:09:24.544Z,9.53
2022-07-25T23:12:01.341Z,8.77
2022-07-25T23:14:28.075Z,5.03
2022-07-25T23:17:13.311Z,14.10
2022-07-25T23:19:40.019Z,6.90
2022-07-25T23:22:06.579Z,5.90
2022-07-25T23:24:37.633Z,6.77
2022-07-25T23:27:05.030Z,7.97
2022-07-25T23:29:31.644Z,5.23
2022-07-25T23:31:58.535Z,7.57
2022-07-25T23:34:25.139Z,9.37
2022-07-25T23:39:35.820Z,10.40
2022-07-25T23:42:03.040Z,7.90
2022-07-25T23:47:14.135Z,10.43
2022-07-25T23:49:40.822Z,12.50
2022-07-25T23:52:07.391Z,9.60
2022-07-25T23:54:35.053Z,13.37
2022-07-25T23:57:02.953Z,12.70
2022-07-25T23:59:29.519Z,13.37
